createdAt,value
2023-02-25T00:02:35.987Z,64.21
2023-02-25T00:07:56.687Z,64.32
2023-02-25T00:13:18.626Z,64.35
2023-02-25T00:18:44.244Z,64.44
2023-02-25T00:24:15.835Z,64.54
2023-02-25T00:29:37.899Z,64.36
2023-02-25T00:34:58.627Z,64.62
2023-02-25T00:40:19.592Z,64.33
2023-02-25T00:45:40.767Z,64.61
2023-02-25T00:51:09.973Z,64.49
2023-02-25T00:56:30.819Z,64.50
2023-02-25T01:01:51.858Z,64.70
2023-02-25T01:07:13.962Z,64.90
2023-02-25T01:12:34.839Z,64.90
2023-02-25T01:17:55.477Z,64.71
2023-02-25T01:23:18.352Z,64.92
2023-02-25T01:28:39.073Z,64.99
2023-02-25T01:34:01.006Z,64.59
2023-02-25T01:39:26.280Z,64.67
2023-02-25T01:45:18.461Z,64.98
2023-02-25T01:50:48.076Z,65.16
2023-02-25T01:56:12.213Z,65.21
2023-02-25T02:01:36.693Z,65.09
2023-02-25T02:07:00.216Z,65.07
2023-02-25T02:12:21.084Z,65.44
2023-02-25T02:18:02.844Z,65.59
2023-02-25T02:23:46.970Z,65.44
2023-02-25T02:29:14.153Z,65.78
2023-02-25T02:34:55.136Z,65.75
2023-02-25T02:40:41.342Z,66.16
2023-02-25T02:46:16.102Z,65.86
2023-02-25T02:52:00.211Z,65.75
2023-02-25T02:57:23.756Z,65.74
2023-02-25T03:02:58.379Z,65.80
2023-02-25T03:08:27.768Z,65.92
2023-02-25T03:13:50.745Z,65.46
2023-02-25T03:19:23.610Z,65.21
2023-02-25T03:24:55.753Z,65.59
2023-02-25T03:30:41.863Z,65.63
2023-02-25T03:36:10.924Z,66.03
2023-02-25T03:41:36.193Z,66.01
2023-02-25T03:46:58.453Z,65.40
2023-02-25T03:52:23.293Z,65.74
2023-02-25T03:57:51.097Z,65.39
2023-02-25T04:03:12.777Z,65.75
2023-02-25T04:08:33.475Z,64.63
2023-02-25T04:13:55.114Z,65.32
2023-02-25T04:19:17.097Z,64.79
2023-02-25T04:24:38.152Z,65.15
2023-02-25T04:29:59.542Z,65.45
2023-02-25T04:35:20.471Z,65.27
2023-02-25T04:40:41.266Z,65.00
2023-02-25T04:46:02.179Z,64.68
2023-02-25T04:51:22.919Z,65.28
2023-02-25T04:56:43.536Z,65.00
2023-02-25T05:02:04.329Z,64.92
2023-02-25T05:07:25.037Z,64.51
2023-02-25T05:12:45.649Z,64.61
2023-02-25T05:18:06.635Z,64.21
2023-02-25T05:23:27.451Z,65.05
2023-02-25T05:28:56.814Z,64.72
2023-02-25T05:34:18.062Z,64.46
2023-02-25T05:39:38.963Z,64.64
2023-02-25T05:45:00.112Z,64.68
2023-02-25T05:50:20.678Z,64.39
2023-02-25T05:55:45.091Z,64.65
2023-02-25T06:01:14.860Z,65.00
2023-02-25T06:06:35.730Z,64.91
2023-02-25T06:11:57.753Z,64.47
2023-02-25T06:17:18.821Z,64.76
2023-02-25T06:22:39.485Z,65.12
2023-02-25T06:28:01.561Z,64.85
2023-02-25T06:33:23.019Z,64.96
2023-02-25T06:38:46.084Z,64.44
2023-02-25T06:44:06.911Z,64.50
2023-02-25T06:49:27.610Z,64.13
2023-02-25T06:54:49.575Z,64.75
2023-02-25T07:00:11.025Z,64.40
2023-02-25T07:05:31.872Z,64.32
2023-02-25T07:10:52.626Z,64.59
2023-02-25T07:16:14.695Z,64.62
2023-02-25T07:21:35.822Z,65.27
2023-02-25T07:26:56.595Z,64.53
2023-02-25T07:32:17.359Z,64.49
2023-02-25T07:37:39.422Z,64.38
2023-02-25T07:43:00.030Z,64.47
2023-02-25T07:48:21.612Z,64.80
2023-02-25T07:53:45.073Z,64.44
2023-02-25T07:59:07.872Z,64.54
2023-02-25T08:04:30.139Z,64.55
2023-02-25T08:09:51.297Z,64.25
2023-02-25T08:15:12.787Z,64.31
2023-02-25T08:20:33.552Z,65.17
2023-02-25T08:25:55.766Z,64.37
2023-02-25T08:31:17.764Z,65.13
2023-02-25T08:36:38.357Z,65.51
2023-02-25T08:41:59.118Z,66.18
2023-02-25T08:47:19.930Z,66.47
2023-02-25T08:52:42.311Z,67.00
2023-02-25T08:58:03.399Z,66.93
2023-02-25T09:03:24.816Z,67.13
2023-02-25T09:08:45.697Z,71.61
2023-02-25T09:14:06.786Z,67.49
2023-02-25T09:19:27.753Z,67.66
2023-02-25T09:24:48.607Z,66.99
2023-02-25T09:30:10.061Z,67.42
2023-02-25T09:35:31.738Z,67.80
2023-02-25T09:40:52.973Z,67.72
2023-02-25T09:46:19.117Z,67.34
2023-02-25T09:51:57.869Z,67.19
2023-02-25T09:57:21.624Z,67.79
2023-02-25T10:02:58.425Z,67.56
2023-02-25T10:08:44.353Z,67.73
2023-02-25T10:14:05.252Z,67.92
2023-02-25T10:19:50.916Z,67.89
2023-02-25T10:25:16.910Z,68.39
2023-02-25T10:30:58.300Z,68.29
2023-02-25T10:36:48.003Z,67.91
2023-02-25T10:42:11.124Z,67.99
2023-02-25T10:47:36.392Z,68.02
2023-02-25T10:53:04.011Z,68.20
2023-02-25T10:58:40.401Z,68.14
2023-02-25T11:04:03.458Z,68.28
2023-02-25T11:09:24.402Z,67.97
2023-02-25T11:14:45.406Z,67.27
2023-02-25T11:20:20.899Z,67.42
2023-02-25T11:25:43.770Z,68.39
2023-02-25T11:31:11.761Z,67.84
2023-02-25T11:36:35.105Z,68.24
2023-02-25T11:41:59.724Z,68.36
2023-02-25T11:47:26.765Z,68.56
2023-02-25T11:53:09.129Z,68.69
2023-02-25T11:58:54.630Z,68.33
2023-02-25T12:04:27.465Z,68.67
2023-02-25T12:10:19.807Z,68.70
2023-02-25T12:15:55.762Z,68.17
2023-02-25T12:21:43.798Z,68.29
2023-02-25T12:27:38.783Z,67.72
2023-02-25T12:33:12.022Z,68.86
2023-02-25T12:39:00.713Z,69.08
2023-02-25T12:44:43.235Z,68.59
2023-02-25T12:50:23.231Z,69.04
2023-02-25T12:56:02.601Z,68.16
2023-02-25T13:01:48.264Z,68.90
2023-02-25T13:07:30.822Z,68.31
2023-02-25T13:12:53.334Z,68.42
2023-02-25T13:18:51.822Z,68.91
2023-02-25T13:24:21.844Z,68.98
2023-02-25T13:30:05.451Z,68.69
2023-02-25T13:35:48.075Z,68.25
2023-02-25T13:41:35.222Z,68.20
2023-02-25T13:47:14.844Z,67.82
2023-02-25T13:53:13.403Z,67.30
2023-02-25T13:58:55.622Z,66.68
2023-02-25T14:04:39.635Z,66.15
2023-02-25T14:10:13.280Z,68.17
2023-02-25T14:15:49.330Z,71.07
2023-02-25T14:21:28.968Z,67.52
2023-02-25T14:27:33.265Z,65.51
2023-02-25T14:33:20.922Z,65.14
2023-02-25T14:39:00.575Z,64.97
2023-02-25T14:44:58.833Z,65.14
2023-02-25T14:50:30.659Z,65.18
2023-02-25T14:56:00.808Z,65.17
2023-02-25T15:01:24.837Z,65.62
2023-02-25T15:06:59.197Z,65.09
2023-02-25T15:13:08.270Z,64.28
2023-02-25T15:19:00.901Z,64.57
2023-02-25T15:24:27.877Z,64.82
2023-02-25T15:29:57.773Z,64.12
2023-02-25T15:35:35.424Z,64.71
2023-02-25T15:40:56.924Z,64.26
2023-02-25T15:46:23.697Z,64.89
2023-02-25T15:51:48.736Z,63.98
2023-02-25T15:57:09.820Z,64.23
2023-02-25T16:02:39.426Z,63.70
2023-02-25T16:08:22.890Z,63.51
2023-02-25T16:13:45.746Z,65.34
2023-02-25T16:19:10.411Z,64.54
2023-02-25T16:24:32.016Z,64.35
2023-02-25T16:30:01.439Z,64.26
2023-02-25T16:35:33.869Z,64.39
2023-02-25T16:40:55.289Z,63.67
2023-02-25T16:46:22.427Z,64.35
2023-02-25T16:51:45.425Z,64.04
2023-02-25T16:57:18.789Z,64.60
2023-02-25T17:03:04.692Z,64.44
2023-02-25T17:08:25.426Z,64.45
2023-02-25T17:13:50.070Z,64.47
2023-02-25T17:19:17.560Z,64.02
2023-02-25T17:24:40.602Z,64.55
2023-02-25T17:30:01.592Z,64.60
2023-02-25T17:35:22.504Z,64.95
2023-02-25T17:40:44.808Z,64.25
2023-02-25T17:46:38.215Z,63.71
2023-02-25T17:52:06.646Z,63.71
2023-02-25T17:57:31.279Z,64.44
2023-02-25T18:03:25.367Z,65.14
2023-02-25T18:08:52.760Z,67.15
2023-02-25T18:14:30.754Z,64.25
2023-02-25T18:19:55.355Z,64.24
2023-02-25T18:25:33.304Z,63.52
2023-02-25T18:30:55.465Z,64.46
2023-02-25T18:36:23.555Z,64.06
2023-02-25T18:41:45.087Z,64.04
2023-02-25T18:47:05.989Z,64.66
2023-02-25T18:52:26.978Z,64.84
2023-02-25T18:57:48.083Z,64.29
2023-02-25T19:03:15.776Z,64.24
2023-02-25T19:08:36.747Z,64.34
2023-02-25T19:13:57.616Z,64.21
2023-02-25T19:19:18.599Z,64.15
2023-02-25T19:24:39.555Z,64.73
2023-02-25T19:30:00.353Z,64.72
2023-02-25T19:35:21.583Z,64.84
2023-02-25T19:40:44.243Z,65.09
2023-02-25T19:46:09.534Z,64.67
2023-02-25T19:51:30.499Z,65.08
2023-02-25T19:56:51.954Z,65.45
2023-02-25T20:02:13.610Z,65.15
2023-02-25T20:07:35.043Z,65.37
2023-02-25T20:12:56.060Z,65.71
2023-02-25T20:18:16.738Z,65.75
2023-02-25T20:23:39.580Z,65.74
2023-02-25T20:29:01.151Z,65.50
2023-02-25T20:34:23.655Z,65.62
2023-02-25T20:39:51.072Z,66.10
2023-02-25T20:45:15.848Z,66.12
2023-02-25T20:50:38.315Z,66.23
2023-02-25T20:55:59.172Z,66.36
2023-02-25T21:01:19.874Z,66.76
2023-02-25T21:06:40.489Z,66.87
2023-02-25T21:12:02.421Z,66.89
2023-02-25T21:17:23.182Z,67.01
2023-02-25T21:22:43.963Z,66.96
2023-02-25T21:28:04.674Z,67.18
2023-02-25T21:33:25.344Z,67.17
2023-02-25T21:38:46.066Z,67.26
2023-02-25T21:44:07.712Z,66.86
2023-02-25T21:49:30.823Z,66.90
2023-02-25T21:54:52.875Z,67.11
2023-02-25T22:00:14.431Z,67.03
2023-02-25T22:05:35.086Z,67.27
2023-02-25T22:10:55.832Z,67.43
2023-02-25T22:16:17.957Z,67.19
2023-02-25T22:21:39.279Z,67.24
2023-02-25T22:27:00.732Z,67.50
2023-02-25T22:32:21.630Z,67.60
2023-02-25T22:37:42.430Z,67.29
2023-02-25T22:43:03.109Z,67.55
2023-02-25T22:48:23.790Z,67.98
2023-02-25T22:53:44.465Z,67.73
2023-02-25T22:59:05.755Z,67.66
2023-02-25T23:04:27.823Z,67.75
2023-02-25T23:09:49.891Z,67.92
2023-02-25T23:15:11.025Z,68.13
2023-02-25T23:20:34.287Z,68.39
2023-02-25T23:25:55.125Z,68.01
2023-02-25T23:31:20.543Z,68.26
2023-02-25T23:36:43.510Z,68.20
2023-02-25T23:42:04.845Z,68.11
2023-02-25T23:47:25.438Z,67.95
2023-02-25T23:52:46.707Z,68.02
2023-02-25T23:58:07.824Z,68.32
